Cold Spring, New York
Current Conditions -  °F | °C
As of 10:45 AM on Wednesday 22 Oct 2014 (Local Time) from KSWF Reporting Station
Overcast Overcast  
Wind Chill: 50°   Ceiling: 700
Heat Index: 50°   Visibility: 8mi
Dew Point: 50°   Wind: 12mph
Humidity: 100%   Direction: 30°NNE
Pressure: 30"   Gusts: 20mph
Location:  41.42°N, 73.95°W
Report Text: KSWF 221445Z 03010G17KT 8SM OVC007 10/10 A3000
Loading
Personal Weather Stations






























Interactive Weather Map
Tropical Storm Tracking
New forecast layout! Learn more

10-Day Weather Forecast

Advertisements
Track Severe Weather on mobile